Time,TemperatureF,DewpointF,PressureIn,WindDirection,WindDirectionDegrees,WindSpeedMPH,WindSpeedGustMPH,Humidity,HourlyPrecipIn,Conditions,Clouds,dailyrainin,SoftwareType,DateUTC
2013-09-12 00:12:00,62.0,39.0,-100.00,NE,45,6.0,10.0,42,-99.99,,,-99.99,,2013-09-12 07:12:00,
2013-09-12 00:43:00,62.0,39.0,-100.00,NE,45,6.0,9.0,42,-99.99,,,-99.99,,2013-09-12 07:43:00,
2013-09-12 00:52:00,63.0,38.0,-100.00,NE,45,5.0,9.0,40,-99.99,,,-99.99,,2013-09-12 07:52:00,
2013-09-12 01:42:00,63.0,33.0,-100.00,NE,45,5.0,8.0,33,-99.99,,,-99.99,,2013-09-12 08:42:00,
2013-09-12 10:23:00,72.0,36.0,-100.00,East,90,9.0,11.0,26,-99.99,,,-99.99,,2013-09-12 17:23:00,
2013-09-12 10:42:00,73.0,37.0,-100.00,NE,45,8.0,12.0,27,-99.99,,,-99.99,,2013-09-12 17:42:00,
2013-09-12 10:53:00,73.0,37.0,-100.00,East,90,7.0,12.0,27,-99.99,,,-99.99,,2013-09-12 17:53:00,
2013-09-12 11:12:00,73.0,38.0,-100.00,NE,45,7.0,11.0,28,-99.99,,,-99.99,,2013-09-12 18:12:00,
2013-09-12 11:21:00,73.0,38.0,-100.00,NE,45,8.0,12.0,28,-99.99,,,-99.99,,2013-09-12 18:21:00,
2013-09-12 11:42:00,74.0,40.0,-100.00,NE,45,4.0,11.0,29,-99.99,,,-99.99,,2013-09-12 18:42:00,
2013-09-12 11:52:00,73.0,40.0,-100.00,East,90,9.0,14.0,31,-99.99,,,-99.99,,2013-09-12 18:52:00,
2013-09-12 12:12:00,73.0,40.0,-100.00,East,90,8.0,13.0,31,-99.99,,,-99.99,,2013-09-12 19:12:00,
2013-09-12 12:22:00,74.0,39.0,-100.00,NE,45,7.0,12.0,28,-99.99,,,-99.99,,2013-09-12 19:22:00,
2013-09-12 12:42:00,74.0,39.0,-100.00,East,90,9.0,12.0,28,-99.99,,,-99.99,,2013-09-12 19:42:00,
2013-09-12 12:52:00,76.0,38.0,-100.00,East,90,7.0,13.0,25,-99.99,,,-99.99,,2013-09-12 19:52:00,
2013-09-12 13:11:00,75.0,37.0,-100.00,NE,45,8.0,12.0,25,-99.99,,,-99.99,,2013-09-12 20:11:00,
2013-09-12 13:22:00,76.0,33.0,-100.00,East,90,9.0,13.0,21,-99.99,,,-99.99,,2013-09-12 20:22:00,
2013-09-12 13:42:00,76.0,36.0,-100.00,NE,45,6.0,14.0,23,-99.99,,,-99.99,,2013-09-12 20:42:00,
2013-09-12 13:52:00,75.0,35.0,-100.00,NE,45,8.0,16.0,23,-99.99,,,-99.99,,2013-09-12 20:52:00,
2013-09-12 14:11:00,75.0,36.0,-100.00,NE,45,9.0,17.0,24,-99.99,,,-99.99,,2013-09-12 21:11:00,
2013-09-12 14:21:00,76.0,36.0,-100.00,East,90,9.0,16.0,24,-99.99,,,-99.99,,2013-09-12 21:21:00,
2013-09-12 14:43:00,77.0,35.0,-100.00,East,90,7.0,16.0,22,-99.99,,,-99.99,,2013-09-12 21:43:00,
2013-09-12 14:54:00,76.0,36.0,-100.00,East,90,13.0,20.0,24,-99.99,,,-99.99,,2013-09-12 21:54:00,
2013-09-12 15:13:00,77.0,37.0,-100.00,NE,45,8.0,16.0,24,-99.99,,,-99.99,,2013-09-12 22:13:00,
2013-09-12 15:43:00,76.0,34.0,-100.00,NE,45,8.0,14.0,22,-99.99,,,-99.99,,2013-09-12 22:43:00,
2013-09-12 15:54:00,76.0,38.0,-100.00,NE,45,8.0,14.0,25,-99.99,,,-99.99,,2013-09-12 22:54:00,
2013-09-12 16:12:00,76.0,38.0,-100.00,East,90,11.0,17.0,25,-99.99,,,-99.99,,2013-09-12 23:12:00,
2013-09-12 16:23:00,77.0,35.0,-100.00,NE,45,6.0,16.0,22,-99.99,,,-99.99,,2013-09-12 23:23:00,
2013-09-12 16:42:00,76.0,38.0,-100.00,NE,45,7.0,16.0,25,-99.99,,,-99.99,,2013-09-12 23:42:00,
2013-09-12 16:52:00,76.0,36.0,-100.00,East,90,10.0,14.0,24,-99.99,,,-99.99,,2013-09-12 23:52:00,
2013-09-12 17:11:00,76.0,37.0,-100.00,East,90,10.0,15.0,24,-99.99,,,-99.99,,2013-09-13 00:11:00,
2013-09-12 17:22:00,75.0,37.0,-100.00,NE,45,8.0,17.0,25,-99.99,,,-99.99,,2013-09-13 00:22:00,
2013-09-12 17:42:00,75.0,37.0,-100.00,NE,45,9.0,12.0,25,-99.99,,,-99.99,,2013-09-13 00:42:00,
2013-09-12 17:52:00,74.0,37.0,-100.00,NE,45,5.0,13.0,26,-99.99,,,-99.99,,2013-09-13 00:52:00,
2013-09-12 18:11:00,74.0,38.0,-100.00,NE,45,6.0,12.0,27,-99.99,,,-99.99,,2013-09-13 01:11:00,
2013-09-12 18:21:00,73.0,38.0,-100.00,NE,45,6.0,11.0,28,-99.99,,,-99.99,,2013-09-13 01:21:00,
2013-09-12 18:42:00,73.0,39.0,-100.00,NE,45,7.0,11.0,29,-99.99,,,-99.99,,2013-09-13 01:42:00,
2013-09-12 18:52:00,73.0,38.0,-100.00,NE,45,6.0,9.0,28,-99.99,,,-99.99,,2013-09-13 01:52:00,
2013-09-12 19:11:00,73.0,38.0,-100.00,NE,45,6.0,10.0,28,-99.99,,,-99.99,,2013-09-13 02:11:00,
2013-09-12 19:22:00,72.0,38.0,-100.00,NE,45,6.0,11.0,29,-99.99,,,-99.99,,2013-09-13 02:22:00,
2013-09-12 19:42:00,71.0,38.0,-100.00,NE,45,6.0,9.0,30,-99.99,,,-99.99,,2013-09-13 02:42:00,
2013-09-12 19:53:00,69.0,39.0,-100.00,NE,45,4.0,6.0,33,-99.99,,,-99.99,,2013-09-13 02:53:00,
2013-09-12 20:11:00,68.0,39.0,-100.00,NE,45,4.0,6.0,34,-99.99,,,-99.99,,2013-09-13 03:11:00,
2013-09-12 20:22:00,68.0,40.0,-100.00,NE,45,1.0,6.0,36,-99.99,,,-99.99,,2013-09-13 03:22:00,
2013-09-12 20:44:00,67.0,41.0,-100.00,NE,45,3.0,5.0,38,-99.99,,,-99.99,,2013-09-13 03:44:00,
2013-09-12 20:55:00,67.0,42.0,-100.00,NE,45,4.0,6.0,41,-99.99,,,-99.99,,2013-09-13 03:55:00,
2013-09-12 21:14:00,67.0,42.0,-100.00,NE,45,2.0,6.0,40,-99.99,,,-99.99,,2013-09-13 04:14:00,
2013-09-12 21:24:00,66.0,39.0,-100.00,NE,45,3.0,8.0,36,-99.99,,,-99.99,,2013-09-13 04:24:00,
2013-09-12 21:44:00,67.0,38.0,-100.00,NE,45,4.0,8.0,35,-99.99,,,-99.99,,2013-09-13 04:44:00,
2013-09-12 21:54:00,67.0,37.0,-100.00,NE,45,5.0,10.0,34,-99.99,,,-99.99,,2013-09-13 04:54:00,
2013-09-12 22:13:00,66.0,37.0,-100.00,NE,45,4.0,8.0,34,-99.99,,,-99.99,,2013-09-13 05:13:00,
2013-09-12 22:22:00,66.0,38.0,-100.00,NE,45,4.0,7.0,36,-99.99,,,-99.99,,2013-09-13 05:22:00,
2013-09-12 22:43:00,66.0,38.0,-100.00,NE,45,4.0,6.0,36,-99.99,,,-99.99,,2013-09-13 05:43:00,
2013-09-12 22:53:00,65.0,38.0,-100.00,NE,45,4.0,7.0,36,-99.99,,,-99.99,,2013-09-13 05:53:00,
2013-09-12 23:12:00,65.0,38.0,-100.00,NE,45,4.0,7.0,37,-99.99,,,-99.99,,2013-09-13 06:12:00,
2013-09-12 23:42:00,65.0,37.0,-100.00,NE,45,4.0,6.0,36,-99.99,,,-99.99,,2013-09-13 06:42:00,
2013-09-12 23:52:00,64.0,37.0,-100.00,NE,45,3.0,6.0,36,-99.99,,,-99.99,,2013-09-13 06:52:00,